createdAt,value
2019-05-14T00:01:51.981Z,8.70
2019-05-14T00:05:01.688Z,8.70
2019-05-14T00:08:11.462Z,8.80
2019-05-14T00:11:31.304Z,8.90
2019-05-14T00:14:43.802Z,8.80
2019-05-14T00:17:52.325Z,8.70
2019-05-14T00:21:01.878Z,8.40
2019-05-14T00:24:21.727Z,8.40
2019-05-14T00:27:31.222Z,8.20
2019-05-14T00:30:42.275Z,8.20
2019-05-14T00:33:52.885Z,8.10
2019-05-14T00:37:01.748Z,8.10
2019-05-14T00:40:11.832Z,8.20
2019-05-14T00:43:22.169Z,8.40
2019-05-14T00:46:41.148Z,8.50
2019-05-14T00:49:51.742Z,8.50
2019-05-14T00:53:01.925Z,8.30
2019-05-14T00:56:22.840Z,8.10
2019-05-14T00:59:32.262Z,8.20
2019-05-14T01:02:41.754Z,8.20
2019-05-14T01:05:52.156Z,8.10
2019-05-14T01:09:01.477Z,8.00
2019-05-14T01:12:21.437Z,8.10
2019-05-14T01:15:32.407Z,8.20
2019-05-14T01:18:41.584Z,8.20
2019-05-14T01:22:01.690Z,8.30
2019-05-14T01:25:11.994Z,8.20
2019-05-14T01:28:21.621Z,8.20
2019-05-14T01:31:41.743Z,8.10
2019-05-14T01:34:52.484Z,8.10
2019-05-14T01:38:02.736Z,8.00
2019-05-14T01:41:11.942Z,8.10
2019-05-14T01:44:21.370Z,8.10
2019-05-14T01:47:31.889Z,8.00
2019-05-14T01:50:41.437Z,8.00
2019-05-14T01:53:52.108Z,8.00
2019-05-14T01:57:02.084Z,7.90
2019-05-14T02:00:14.177Z,7.80
2019-05-14T02:03:23.252Z,7.60
2019-05-14T02:06:42.518Z,7.60
2019-05-14T02:10:01.722Z,7.60
2019-05-14T02:13:12.369Z,7.70
2019-05-14T02:16:34.465Z,7.70
2019-05-14T02:19:43.432Z,7.70
2019-05-14T02:23:03.640Z,7.70
2019-05-14T02:26:12.593Z,7.70
2019-05-14T02:29:21.500Z,7.70
2019-05-14T02:32:30.293Z,7.70
2019-05-14T02:35:39.762Z,7.70
2019-05-14T02:39:00.396Z,7.60
2019-05-14T02:42:10.376Z,7.60
2019-05-14T02:45:19.927Z,7.60
2019-05-14T02:48:29.532Z,7.60
2019-05-14T02:51:39.092Z,7.60
2019-05-14T02:54:59.712Z,7.40
2019-05-14T02:58:10.024Z,7.40
2019-05-14T03:01:20.015Z,7.40
2019-05-14T03:04:31.906Z,7.40
2019-05-14T03:07:53.045Z,7.40
2019-05-14T03:11:01.913Z,7.50
2019-05-14T03:14:09.314Z,7.50
2019-05-14T03:17:19.916Z,7.50
2019-05-14T03:20:29.102Z,7.50
2019-05-14T03:23:39.250Z,7.30
2019-05-14T03:26:49.949Z,7.30
2019-05-14T03:30:13.018Z,7.10
2019-05-14T03:33:22.518Z,7.10
2019-05-14T03:36:43.468Z,7.10
2019-05-14T03:39:51.842Z,7.20
2019-05-14T03:43:00.507Z,7.30
2019-05-14T03:46:10.137Z,7.30
2019-05-14T03:49:19.876Z,7.30
2019-05-14T03:52:40.927Z,7.30
2019-05-14T03:55:50.686Z,7.30
2019-05-14T03:59:00.224Z,7.30
2019-05-14T04:02:10.823Z,7.30
2019-05-14T04:05:29.782Z,7.40
2019-05-14T04:08:40.332Z,7.40
2019-05-14T04:11:52.061Z,7.40
2019-05-14T04:15:02.020Z,7.40
2019-05-14T04:18:12.642Z,7.30
2019-05-14T04:21:22.891Z,7.20
2019-05-14T04:24:36.873Z,7.30
2019-05-14T04:27:49.112Z,7.40
2019-05-14T04:30:59.766Z,7.40
2019-05-14T04:34:10.787Z,7.50
2019-05-14T04:37:20.109Z,7.60
2019-05-14T04:40:29.786Z,7.60
2019-05-14T04:43:40.130Z,7.60
2019-05-14T04:46:49.641Z,7.70
2019-05-14T04:50:00.235Z,7.70
2019-05-14T04:53:09.020Z,7.80
2019-05-14T04:56:19.593Z,7.90
2019-05-14T04:59:39.880Z,8.10
2019-05-14T05:02:50.224Z,8.20
2019-05-14T05:05:59.388Z,8.30
2019-05-14T05:09:10.055Z,8.40
2019-05-14T05:12:19.738Z,8.60
2019-05-14T05:15:29.138Z,8.70
2019-05-14T05:18:41.017Z,8.80
2019-05-14T05:21:49.977Z,8.90
2019-05-14T05:24:59.083Z,9.00
2019-05-14T05:28:19.309Z,9.20
2019-05-14T05:31:29.406Z,9.50
2019-05-14T05:34:38.770Z,10.00
2019-05-14T05:37:49.040Z,10.40
2019-05-14T05:41:00.339Z,10.80
2019-05-14T05:44:10.261Z,11.20
2019-05-14T05:47:18.431Z,11.50
2019-05-14T05:50:28.718Z,11.80
2019-05-14T05:53:39.283Z,11.90
2019-05-14T05:56:48.241Z,12.20
2019-05-14T05:59:58.888Z,12.50
2019-05-14T06:03:20.978Z,12.90
2019-05-14T06:06:29.776Z,13.30
2019-05-14T06:09:38.765Z,13.50
2019-05-14T06:12:49.069Z,13.80
2019-05-14T06:15:59.171Z,14.00
2019-05-14T06:19:08.455Z,14.40
2019-05-14T06:22:18.881Z,14.80
2019-05-14T06:25:31.128Z,15.40
2019-05-14T06:28:49.996Z,15.80
2019-05-14T06:31:59.114Z,16.10
2019-05-14T06:35:08.778Z,16.20
2019-05-14T06:38:18.490Z,15.90
2019-05-14T06:41:28.366Z,15.80
2019-05-14T06:44:38.540Z,15.50
2019-05-14T06:47:48.718Z,14.90
2019-05-14T06:50:58.340Z,14.80
2019-05-14T06:54:19.600Z,14.50
2019-05-14T06:57:28.602Z,14.30
2019-05-14T07:00:39.425Z,14.10
2019-05-14T07:03:54.514Z,13.90
2019-05-14T07:07:03.149Z,13.90
2019-05-14T07:10:12.309Z,13.90
2019-05-14T07:13:20.846Z,14.10
2019-05-14T07:16:29.456Z,14.20
2019-05-14T07:19:39.992Z,14.00
2019-05-14T07:22:50.322Z,14.10
2019-05-14T07:25:59.258Z,14.10
2019-05-14T07:29:11.263Z,14.00
2019-05-14T07:32:19.167Z,13.80
2019-05-14T07:35:28.854Z,13.90
2019-05-14T07:38:39.249Z,14.10
2019-05-14T07:41:48.519Z,14.30
2019-05-14T07:44:59.390Z,14.40
2019-05-14T07:48:19.025Z,14.40
2019-05-14T07:51:29.456Z,14.50
2019-05-14T07:54:38.941Z,14.80
2019-05-14T07:57:48.276Z,15.20
2019-05-14T08:01:09.471Z,15.50
2019-05-14T08:04:19.914Z,15.50
2019-05-14T08:07:29.235Z,15.50
2019-05-14T08:10:39.230Z,15.60
2019-05-14T08:13:49.372Z,15.60
2019-05-14T08:16:59.508Z,15.70
2019-05-14T08:20:20.136Z,15.70
2019-05-14T08:23:28.901Z,15.70
2019-05-14T08:26:38.241Z,15.80
2019-05-14T08:29:58.963Z,15.70
2019-05-14T08:33:08.956Z,15.90
2019-05-14T08:36:20.468Z,16.10
2019-05-14T08:39:29.054Z,16.20
2019-05-14T08:42:38.338Z,16.40
2019-05-14T08:45:48.827Z,16.60
2019-05-14T08:48:58.636Z,16.80
2019-05-14T08:52:08.772Z,16.90
2019-05-14T08:55:18.449Z,16.80
2019-05-14T08:58:29.674Z,16.50
2019-05-14T09:01:38.804Z,16.40
2019-05-14T09:04:54.125Z,16.40
2019-05-14T09:07:58.270Z,16.40
2019-05-14T09:11:09.807Z,16.30
2019-05-14T09:14:18.926Z,16.30
2019-05-14T09:17:28.901Z,16.10
2019-05-14T09:20:38.210Z,16.30
2019-05-14T09:23:48.374Z,16.10
2019-05-14T09:26:59.221Z,15.90
2019-05-14T09:30:09.666Z,15.90
2019-05-14T09:33:30.300Z,16.00
2019-05-14T09:36:39.718Z,16.00
2019-05-14T09:39:58.843Z,16.10
2019-05-14T09:43:09.208Z,16.10
2019-05-14T09:46:18.679Z,16.10
2019-05-14T09:49:28.241Z,16.20
2019-05-14T09:52:39.188Z,16.30
2019-05-14T09:55:49.118Z,16.40
2019-05-14T09:58:58.691Z,16.50
2019-05-14T10:02:09.134Z,16.70
2019-05-14T10:05:19.503Z,16.80
2019-05-14T10:08:28.692Z,17.00
2019-05-14T10:11:38.334Z,17.20
2019-05-14T10:14:59.220Z,17.20
2019-05-14T10:18:11.681Z,17.20
2019-05-14T10:21:19.110Z,17.30
2019-05-14T10:24:29.115Z,17.10
2019-05-14T10:27:39.133Z,17.10
2019-05-14T10:30:49.075Z,17.10
2019-05-14T10:33:58.848Z,16.90
2019-05-14T10:37:08.693Z,16.70
2019-05-14T10:40:18.540Z,16.50
2019-05-14T10:43:28.767Z,16.40
2019-05-14T10:46:38.419Z,16.50
2019-05-14T10:49:58.421Z,16.60
2019-05-14T10:53:09.111Z,16.80
2019-05-14T10:56:19.319Z,16.90
2019-05-14T10:59:29.380Z,17.10
2019-05-14T11:02:38.940Z,17.20
2019-05-14T11:05:48.255Z,17.20
2019-05-14T11:09:09.231Z,17.20
2019-05-14T11:12:29.655Z,17.50
2019-05-14T11:15:39.526Z,17.50
2019-05-14T11:18:50.023Z,17.30
2019-05-14T11:21:59.005Z,17.30
2019-05-14T11:25:09.130Z,17.40
2019-05-14T11:28:19.134Z,17.40
2019-05-14T11:31:29.877Z,17.60
2019-05-14T11:34:39.104Z,17.60
2019-05-14T11:37:48.180Z,17.60
2019-05-14T11:40:58.779Z,17.70
2019-05-14T11:44:09.127Z,18.10
2019-05-14T11:47:18.146Z,18.20
2019-05-14T11:50:39.515Z,18.10
2019-05-14T11:53:49.476Z,18.10
2019-05-14T11:56:59.014Z,18.10
2019-05-14T12:00:20.270Z,18.00
2019-05-14T12:03:39.743Z,17.80
2019-05-14T12:06:48.689Z,17.80
2019-05-14T12:09:57.236Z,17.70
2019-05-14T12:13:08.378Z,17.90
2019-05-14T12:16:16.275Z,18.10
2019-05-14T12:19:35.474Z,18.20
2019-05-14T12:22:54.496Z,18.50
2019-05-14T12:26:02.311Z,18.70
2019-05-14T12:29:11.637Z,18.60
2019-05-14T12:32:21.432Z,19.00
2019-05-14T12:35:40.513Z,18.90
2019-05-14T12:39:04.382Z,18.70
2019-05-14T12:42:13.075Z,18.30
2019-05-14T12:45:22.032Z,18.60
2019-05-14T12:48:30.962Z,19.90
2019-05-14T12:51:51.448Z,21.40
2019-05-14T12:54:59.927Z,22.00
2019-05-14T12:58:11.111Z,22.40
2019-05-14T13:01:23.249Z,22.70
2019-05-14T13:04:31.070Z,22.50
2019-05-14T13:07:41.827Z,22.00
2019-05-14T13:10:50.852Z,20.90
2019-05-14T13:13:59.668Z,20.90
2019-05-14T13:17:09.256Z,20.20
2019-05-14T13:20:18.660Z,20.20
2019-05-14T13:23:29.179Z,20.40
2019-05-14T13:26:39.010Z,20.20
2019-05-14T13:29:48.804Z,19.60
2019-05-14T13:33:08.869Z,18.90
2019-05-14T13:36:20.432Z,18.60
2019-05-14T13:39:31.542Z,18.80
2019-05-14T13:42:44.262Z,18.70
2019-05-14T13:45:50.474Z,18.50
2019-05-14T13:48:59.414Z,18.30
2019-05-14T13:52:09.327Z,18.50
2019-05-14T13:55:19.377Z,18.50
2019-05-14T13:58:38.751Z,18.40
2019-05-14T14:01:59.187Z,18.00
2019-05-14T14:05:10.182Z,17.70
2019-05-14T14:08:19.350Z,17.60
2019-05-14T14:11:31.217Z,17.60
2019-05-14T14:14:39.603Z,17.40
2019-05-14T14:17:49.613Z,17.60
2019-05-14T14:20:59.772Z,17.70
2019-05-14T14:24:10.387Z,17.60
2019-05-14T14:27:19.727Z,17.60
2019-05-14T14:30:28.569Z,17.60
2019-05-14T14:33:48.755Z,17.60
2019-05-14T14:36:59.326Z,17.70
2019-05-14T14:40:10.746Z,17.40
2019-05-14T14:43:19.841Z,17.30
2019-05-14T14:46:28.803Z,17.30
2019-05-14T14:49:42.283Z,17.20
2019-05-14T14:52:59.847Z,17.30
2019-05-14T14:56:09.481Z,17.20
2019-05-14T14:59:19.543Z,17.20
2019-05-14T15:02:28.944Z,17.10
2019-05-14T15:05:39.038Z,16.90
2019-05-14T15:08:58.802Z,16.90
2019-05-14T15:12:09.126Z,16.90
2019-05-14T15:15:18.663Z,16.80
2019-05-14T15:18:29.090Z,16.80
2019-05-14T15:21:37.901Z,16.90
2019-05-14T15:24:48.767Z,16.90
2019-05-14T15:27:58.397Z,16.80
2019-05-14T15:31:08.723Z,16.70
2019-05-14T15:34:18.906Z,16.60
2019-05-14T15:37:28.596Z,16.50
2019-05-14T15:40:40.021Z,16.50
2019-05-14T15:43:48.518Z,16.40
2019-05-14T15:46:58.731Z,16.30
2019-05-14T15:50:09.960Z,16.30
2019-05-14T15:53:19.479Z,16.20
2019-05-14T15:56:29.862Z,16.20
2019-05-14T15:59:48.758Z,16.10
2019-05-14T16:03:00.315Z,16.10
2019-05-14T16:06:08.942Z,15.90
2019-05-14T16:09:19.429Z,15.80
2019-05-14T16:12:32.003Z,15.90
2019-05-14T16:15:38.905Z,15.90
2019-05-14T16:18:48.107Z,15.90
2019-05-14T16:21:58.611Z,15.90
2019-05-14T16:25:08.826Z,15.90
2019-05-14T16:28:28.709Z,15.80
2019-05-14T16:31:43.214Z,15.60
2019-05-14T16:34:48.935Z,15.70
2019-05-14T16:37:59.197Z,15.50
2019-05-14T16:41:08.007Z,15.60
2019-05-14T16:44:18.794Z,15.60
2019-05-14T16:47:28.616Z,15.60
2019-05-14T16:50:37.411Z,15.50
2019-05-14T16:53:45.909Z,15.40
2019-05-14T16:56:54.540Z,15.20
2019-05-14T17:00:15.328Z,15.00
2019-05-14T17:03:23.999Z,15.00
2019-05-14T17:06:34.858Z,15.10
2019-05-14T17:09:43.524Z,15.10
2019-05-14T17:12:57.240Z,15.10
2019-05-14T17:16:02.421Z,14.90
2019-05-14T17:19:11.109Z,15.10
2019-05-14T17:22:33.522Z,15.00
2019-05-14T17:25:40.136Z,15.20
2019-05-14T17:28:49.838Z,15.10
2019-05-14T17:31:58.444Z,15.00
2019-05-14T17:35:08.334Z,15.00
2019-05-14T17:38:18.487Z,14.90
2019-05-14T17:41:27.271Z,14.90
2019-05-14T17:44:35.968Z,14.80
2019-05-14T17:47:44.770Z,14.80
2019-05-14T17:50:52.412Z,14.70
2019-05-14T17:54:00.991Z,14.70
2019-05-14T17:57:08.720Z,14.70
2019-05-14T18:00:28.745Z,14.60
2019-05-14T18:03:39.701Z,14.60
2019-05-14T18:06:48.844Z,14.50
2019-05-14T18:09:58.826Z,14.50
2019-05-14T18:13:09.226Z,14.30
2019-05-14T18:16:31.427Z,14.20
2019-05-14T18:19:40.099Z,14.10
2019-05-14T18:22:48.774Z,13.90
2019-05-14T18:26:04.871Z,13.80
2019-05-14T18:29:08.796Z,13.70
2019-05-14T18:32:28.204Z,13.70
2019-05-14T18:35:48.355Z,13.70
2019-05-14T18:38:58.545Z,13.50
2019-05-14T18:42:08.635Z,13.40
2019-05-14T18:45:19.015Z,13.40
2019-05-14T18:48:29.016Z,13.30
2019-05-14T18:51:37.848Z,13.30
2019-05-14T18:54:48.348Z,13.20
2019-05-14T18:58:08.553Z,13.10
2019-05-14T19:01:19.670Z,13.00
2019-05-14T19:04:29.613Z,12.80
2019-05-14T19:07:48.830Z,12.80
2019-05-14T19:11:08.321Z,12.60
2019-05-14T19:14:29.256Z,12.60
2019-05-14T19:17:38.535Z,12.60
2019-05-14T19:20:48.625Z,12.60
2019-05-14T19:23:57.420Z,12.50
2019-05-14T19:27:04.530Z,12.40
2019-05-14T19:30:23.519Z,12.30
2019-05-14T19:33:32.182Z,12.30
2019-05-14T19:36:40.774Z,12.30
2019-05-14T19:39:49.406Z,12.20
2019-05-14T19:42:58.075Z,12.10
2019-05-14T19:46:08.756Z,12.10
2019-05-14T19:49:18.426Z,12.10
2019-05-14T19:52:28.303Z,12.00
2019-05-14T19:55:39.191Z,11.80
2019-05-14T19:58:47.948Z,11.80
2019-05-14T20:01:58.809Z,11.90
2019-05-14T20:05:19.084Z,11.80
2019-05-14T20:08:43.952Z,11.70
2019-05-14T20:11:52.506Z,11.50
2019-05-14T20:15:01.138Z,11.50
2019-05-14T20:18:10.447Z,11.50
2019-05-14T20:21:19.021Z,11.40
2019-05-14T20:24:28.305Z,11.50
2019-05-14T20:27:48.007Z,11.60
2019-05-14T20:30:58.637Z,11.60
2019-05-14T20:34:08.463Z,11.60
2019-05-14T20:37:29.112Z,11.70
2019-05-14T20:40:38.071Z,11.70
2019-05-14T20:43:58.629Z,11.50
2019-05-14T20:47:09.173Z,11.40
2019-05-14T20:50:18.293Z,11.40
2019-05-14T20:53:39.463Z,11.20
2019-05-14T20:56:49.303Z,11.10
2019-05-14T20:59:58.870Z,11.20
2019-05-14T21:03:08.971Z,11.30
2019-05-14T21:06:28.107Z,11.30
2019-05-14T21:09:49.262Z,11.30
2019-05-14T21:12:58.056Z,11.30
2019-05-14T21:16:08.380Z,11.20
2019-05-14T21:19:28.331Z,11.10
2019-05-14T21:22:39.700Z,11.10
2019-05-14T21:25:48.326Z,11.10
2019-05-14T21:29:07.946Z,11.00
2019-05-14T21:32:16.505Z,10.90
2019-05-14T21:35:35.437Z,10.70
2019-05-14T21:38:44.071Z,10.70
2019-05-14T21:41:52.556Z,10.80
2019-05-14T21:45:01.065Z,10.90
2019-05-14T21:48:09.782Z,10.80
2019-05-14T21:51:18.263Z,10.80
2019-05-14T21:54:39.305Z,10.80
2019-05-14T21:57:56.076Z,10.80
2019-05-14T22:00:59.262Z,10.70
2019-05-14T22:04:08.757Z,10.70
2019-05-14T22:07:18.470Z,10.60
2019-05-14T22:10:28.771Z,10.50
2019-05-14T22:13:38.227Z,10.40
2019-05-14T22:16:58.385Z,10.20
2019-05-14T22:20:08.571Z,10.20
2019-05-14T22:23:17.890Z,10.10
2019-05-14T22:26:28.198Z,10.20
2019-05-14T22:29:36.928Z,10.20
2019-05-14T22:32:45.532Z,10.10
2019-05-14T22:35:54.332Z,10.10
2019-05-14T22:39:02.849Z,10.10
2019-05-14T22:42:11.415Z,10.00
2019-05-14T22:45:20.519Z,10.00
2019-05-14T22:48:28.993Z,10.00
2019-05-14T22:51:38.444Z,9.90
2019-05-14T22:54:49.070Z,9.90
2019-05-14T22:57:59.373Z,9.90
2019-05-14T23:01:14.711Z,9.90
2019-05-14T23:04:18.398Z,9.90
2019-05-14T23:07:27.104Z,10.00
2019-05-14T23:10:35.804Z,10.10
2019-05-14T23:13:44.380Z,10.10
2019-05-14T23:16:53.007Z,10.10
2019-05-14T23:20:01.603Z,9.90
2019-05-14T23:23:20.455Z,9.70
2019-05-14T23:26:29.050Z,9.70
2019-05-14T23:29:38.524Z,9.70
2019-05-14T23:32:48.975Z,9.70
2019-05-14T23:36:08.778Z,9.70
2019-05-14T23:39:18.525Z,9.70
2019-05-14T23:42:39.226Z,9.60
2019-05-14T23:45:48.275Z,9.60
2019-05-14T23:49:08.868Z,9.70
2019-05-14T23:52:19.415Z,9.70
2019-05-14T23:55:28.880Z,9.80
2019-05-14T23:58:37.901Z,9.70
